sensor_id;sensor_type;location;lat;lon;timestamp;P1;durP1;ratioP1;P2;durP2;ratioP2
9749;SDS011;4914;43.218;27.908;2022-07-06T00:02:20;12.57;;;6.75;;
9749;SDS011;4914;43.218;27.908;2022-07-06T00:04:47;13.05;;;6.70;;
9749;SDS011;4914;43.218;27.908;2022-07-06T00:07:14;193.98;;;89.47;;
9749;SDS011;4914;43.218;27.908;2022-07-06T00:09:42;16.23;;;8.90;;
9749;SDS011;4914;43.218;27.908;2022-07-06T00:12:09;17.65;;;7.30;;
9749;SDS011;4914;43.218;27.908;2022-07-06T00:14:36;15.55;;;7.25;;
9749;SDS011;4914;43.218;27.908;2022-07-06T00:17:04;13.43;;;7.30;;
9749;SDS011;4914;43.218;27.908;2022-07-06T00:19:31;13.80;;;7.28;;
9749;SDS011;4914;43.218;27.908;2022-07-06T00:21:57;17.98;;;7.18;;
9749;SDS011;4914;43.218;27.908;2022-07-06T00:24:24;17.73;;;7.18;;
9749;SDS011;4914;43.218;27.908;2022-07-06T00:26:53;16.88;;;7.20;;
9749;SDS011;4914;43.218;27.908;2022-07-06T00:29:19;10.48;;;6.75;;
9749;SDS011;4914;43.218;27.908;2022-07-06T00:31:46;11.38;;;6.40;;
9749;SDS011;4914;43.218;27.908;2022-07-06T00:34:13;6.85;;;5.78;;
9749;SDS011;4914;43.218;27.908;2022-07-06T00:36:40;8.20;;;6.07;;
9749;SDS011;4914;43.218;27.908;2022-07-06T00:39:07;13.07;;;6.30;;
9749;SDS011;4914;43.218;27.908;2022-07-06T00:41:34;7.05;;;5.88;;
9749;SDS011;4914;43.218;27.908;2022-07-06T00:44:06;8.73;;;6.40;;
9749;SDS011;4914;43.218;27.908;2022-07-06T00:46:34;16.50;;;14.32;;
9749;SDS011;4914;43.218;27.908;2022-07-06T00:49:01;9.32;;;6.30;;
9749;SDS011;4914;43.218;27.908;2022-07-06T00:51:28;8.73;;;6.03;;
9749;SDS011;4914;43.218;27.908;2022-07-06T00:53:59;11.85;;;6.55;;
9749;SDS011;4914;43.218;27.908;2022-07-06T00:56:29;10.95;;;6.32;;
9749;SDS011;4914;43.218;27.908;2022-07-06T00:58:57;12.10;;;6.20;;
9749;SDS011;4914;43.218;27.908;2022-07-06T01:01:25;11.13;;;6.22;;
9749;SDS011;4914;43.218;27.908;2022-07-06T01:03:52;8.77;;;6.03;;
9749;SDS011;4914;43.218;27.908;2022-07-06T01:06:19;10.70;;;6.20;;
9749;SDS011;4914;43.218;27.908;2022-07-06T01:08:46;11.07;;;5.85;;
9749;SDS011;4914;43.218;27.908;2022-07-06T01:11:14;7.22;;;6.40;;
9749;SDS011;4914;43.218;27.908;2022-07-06T01:13:42;7.35;;;6.15;;
9749;SDS011;4914;43.218;27.908;2022-07-06T01:16:09;14.02;;;7.97;;
9749;SDS011;4914;43.218;27.908;2022-07-06T01:18:37;13.77;;;7.25;;
9749;SDS011;4914;43.218;27.908;2022-07-06T01:21:09;17.70;;;9.18;;
9749;SDS011;4914;43.218;27.908;2022-07-06T01:23:38;15.90;;;9.65;;
9749;SDS011;4914;43.218;27.908;2022-07-06T01:26:08;15.20;;;10.60;;
9749;SDS011;4914;43.218;27.908;2022-07-06T01:28:36;14.70;;;9.55;;
9749;SDS011;4914;43.218;27.908;2022-07-06T01:31:03;21.80;;;10.65;;
9749;SDS011;4914;43.218;27.908;2022-07-06T01:33:30;21.80;;;11.18;;
9749;SDS011;4914;43.218;27.908;2022-07-06T01:35:57;20.63;;;11.70;;
9749;SDS011;4914;43.218;27.908;2022-07-06T01:38:26;24.63;;;11.73;;
9749;SDS011;4914;43.218;27.908;2022-07-06T01:40:53;20.15;;;12.43;;
9749;SDS011;4914;43.218;27.908;2022-07-06T01:43:19;25.80;;;12.65;;
9749;SDS011;4914;43.218;27.908;2022-07-06T01:45:46;29.27;;;13.35;;
9749;SDS011;4914;43.218;27.908;2022-07-06T01:48:13;21.40;;;13.02;;
9749;SDS011;4914;43.218;27.908;2022-07-06T01:50:40;22.85;;;12.88;;
9749;SDS011;4914;43.218;27.908;2022-07-06T01:53:07;20.45;;;12.10;;
9749;SDS011;4914;43.218;27.908;2022-07-06T01:55:35;20.33;;;13.77;;
9749;SDS011;4914;43.218;27.908;2022-07-06T01:58:02;20.33;;;13.18;;
9749;SDS011;4914;43.218;27.908;2022-07-06T02:00:29;24.75;;;12.98;;
9749;SDS011;4914;43.218;27.908;2022-07-06T02:02:56;34.13;;;13.88;;
9749;SDS011;4914;43.218;27.908;2022-07-06T02:05:23;27.98;;;14.23;;
9749;SDS011;4914;43.218;27.908;2022-07-06T02:07:49;20.80;;;14.02;;
9749;SDS011;4914;43.218;27.908;2022-07-06T02:10:17;35.67;;;14.50;;
9749;SDS011;4914;43.218;27.908;2022-07-06T02:12:45;26.33;;;14.10;;
9749;SDS011;4914;43.218;27.908;2022-07-06T02:15:12;30.90;;;14.30;;
9749;SDS011;4914;43.218;27.908;2022-07-06T02:17:39;31.73;;;13.80;;
9749;SDS011;4914;43.218;27.908;2022-07-06T02:20:06;28.67;;;13.50;;
9749;SDS011;4914;43.218;27.908;2022-07-06T02:22:34;25.65;;;13.68;;
9749;SDS011;4914;43.218;27.908;2022-07-06T02:25:01;26.63;;;14.30;;
9749;SDS011;4914;43.218;27.908;2022-07-06T02:27:28;27.33;;;13.95;;
9749;SDS011;4914;43.218;27.908;2022-07-06T02:29:57;25.63;;;13.43;;
9749;SDS011;4914;43.218;27.908;2022-07-06T02:32:24;18.23;;;13.27;;
9749;SDS011;4914;43.218;27.908;2022-07-06T02:34:51;20.40;;;13.35;;
9749;SDS011;4914;43.218;27.908;2022-07-06T02:37:18;19.45;;;13.07;;
9749;SDS011;4914;43.218;27.908;2022-07-06T02:39:45;29.20;;;13.02;;
9749;SDS011;4914;43.218;27.908;2022-07-06T02:42:12;25.27;;;13.68;;
9749;SDS011;4914;43.218;27.908;2022-07-06T02:44:40;23.63;;;13.80;;
9749;SDS011;4914;43.218;27.908;2022-07-06T02:47:08;27.20;;;13.50;;
9749;SDS011;4914;43.218;27.908;2022-07-06T02:49:35;27.42;;;14.07;;
9749;SDS011;4914;43.218;27.908;2022-07-06T02:52:02;22.70;;;13.98;;
9749;SDS011;4914;43.218;27.908;2022-07-06T02:54:29;22.75;;;13.25;;
9749;SDS011;4914;43.218;27.908;2022-07-06T02:56:56;28.02;;;13.27;;
9749;SDS011;4914;43.218;27.908;2022-07-06T02:59:23;27.02;;;12.82;;
9749;SDS011;4914;43.218;27.908;2022-07-06T03:01:50;26.45;;;12.98;;
9749;SDS011;4914;43.218;27.908;2022-07-06T03:04:18;28.80;;;14.10;;
9749;SDS011;4914;43.218;27.908;2022-07-06T03:06:45;29.65;;;14.88;;
9749;SDS011;4914;43.218;27.908;2022-07-06T03:09:12;27.23;;;15.48;;
9749;SDS011;4914;43.218;27.908;2022-07-06T03:11:39;23.60;;;14.75;;
9749;SDS011;4914;43.218;27.908;2022-07-06T03:14:06;31.35;;;14.63;;
9749;SDS011;4914;43.218;27.908;2022-07-06T03:16:33;34.50;;;14.63;;
9749;SDS011;4914;43.218;27.908;2022-07-06T03:19:00;19.83;;;13.70;;
9749;SDS011;4914;43.218;27.908;2022-07-06T03:21:28;33.92;;;14.80;;
9749;SDS011;4914;43.218;27.908;2022-07-06T03:23:55;25.27;;;14.02;;
9749;SDS011;4914;43.218;27.908;2022-07-06T03:26:22;25.08;;;13.35;;
9749;SDS011;4914;43.218;27.908;2022-07-06T03:28:49;20.13;;;12.77;;
9749;SDS011;4914;43.218;27.908;2022-07-06T03:31:16;25.88;;;13.70;;
9749;SDS011;4914;43.218;27.908;2022-07-06T03:33:43;21.63;;;13.25;;
9749;SDS011;4914;43.218;27.908;2022-07-06T03:36:09;30.55;;;13.68;;
9749;SDS011;4914;43.218;27.908;2022-07-06T03:38:55;23.85;;;13.98;;
9749;SDS011;4914;43.218;27.908;2022-07-06T03:41:22;22.52;;;15.15;;
9749;SDS011;4914;43.218;27.908;2022-07-06T03:43:49;34.53;;;26.75;;
9749;SDS011;4914;43.218;27.908;2022-07-06T03:46:16;65.93;;;55.35;;
9749;SDS011;4914;43.218;27.908;2022-07-06T03:48:42;63.67;;;57.22;;
9749;SDS011;4914;43.218;27.908;2022-07-06T03:51:09;62.30;;;48.47;;
9749;SDS011;4914;43.218;27.908;2022-07-06T03:53:36;52.85;;;44.00;;
9749;SDS011;4914;43.218;27.908;2022-07-06T03:56:05;43.53;;;32.22;;
9749;SDS011;4914;43.218;27.908;2022-07-06T03:58:49;31.85;;;21.77;;
9749;SDS011;4914;43.218;27.908;2022-07-06T04:01:16;31.17;;;18.48;;
9749;SDS011;4914;43.218;27.908;2022-07-06T04:03:43;32.35;;;17.90;;
9749;SDS011;4914;43.218;27.908;2022-07-06T04:06:10;26.05;;;16.83;;
9749;SDS011;4914;43.218;27.908;2022-07-06T04:08:37;22.77;;;15.98;;
9749;SDS011;4914;43.218;27.908;2022-07-06T04:11:05;25.98;;;15.57;;
9749;SDS011;4914;43.218;27.908;2022-07-06T04:13:32;27.98;;;15.38;;
9749;SDS011;4914;43.218;27.908;2022-07-06T04:15:59;21.08;;;15.60;;
9749;SDS011;4914;43.218;27.908;2022-07-06T04:18:26;27.05;;;15.00;;
9749;SDS011;4914;43.218;27.908;2022-07-06T04:20:53;23.58;;;15.23;;
9749;SDS011;4914;43.218;27.908;2022-07-06T04:23:22;30.15;;;15.73;;
9749;SDS011;4914;43.218;27.908;2022-07-06T04:25:49;27.45;;;15.05;;
9749;SDS011;4914;43.218;27.908;2022-07-06T04:28:17;25.48;;;14.93;;
9749;SDS011;4914;43.218;27.908;2022-07-06T04:30:44;25.80;;;15.45;;
9749;SDS011;4914;43.218;27.908;2022-07-06T04:33:11;26.80;;;14.35;;
9749;SDS011;4914;43.218;27.908;2022-07-06T04:35:38;25.63;;;15.32;;
9749;SDS011;4914;43.218;27.908;2022-07-06T04:38:05;27.38;;;15.23;;
9749;SDS011;4914;43.218;27.908;2022-07-06T04:40:31;34.35;;;20.75;;
9749;SDS011;4914;43.218;27.908;2022-07-06T04:42:58;23.95;;;15.13;;
9749;SDS011;4914;43.218;27.908;2022-07-06T04:45:27;26.25;;;16.00;;
9749;SDS011;4914;43.218;27.908;2022-07-06T04:47:54;27.45;;;14.98;;
9749;SDS011;4914;43.218;27.908;2022-07-06T04:50:21;31.05;;;16.15;;
9749;SDS011;4914;43.218;27.908;2022-07-06T04:52:48;23.70;;;14.50;;
9749;SDS011;4914;43.218;27.908;2022-07-06T04:55:15;28.88;;;16.05;;
9749;SDS011;4914;43.218;27.908;2022-07-06T04:57:41;24.98;;;14.70;;
9749;SDS011;4914;43.218;27.908;2022-07-06T05:00:09;19.75;;;14.68;;
9749;SDS011;4914;43.218;27.908;2022-07-06T05:02:38;24.10;;;13.68;;
9749;SDS011;4914;43.218;27.908;2022-07-06T05:05:05;29.05;;;14.77;;
9749;SDS011;4914;43.218;27.908;2022-07-06T05:07:34;23.60;;;13.60;;
9749;SDS011;4914;43.218;27.908;2022-07-06T05:10:05;30.88;;;14.48;;
9749;SDS011;4914;43.218;27.908;2022-07-06T05:12:33;22.73;;;14.18;;
9749;SDS011;4914;43.218;27.908;2022-07-06T05:15:00;21.33;;;12.80;;
9749;SDS011;4914;43.218;27.908;2022-07-06T05:17:26;24.85;;;13.30;;
9749;SDS011;4914;43.218;27.908;2022-07-06T05:19:55;23.00;;;12.88;;
9749;SDS011;4914;43.218;27.908;2022-07-06T05:22:22;29.38;;;13.50;;
9749;SDS011;4914;43.218;27.908;2022-07-06T05:24:49;28.50;;;13.48;;
9749;SDS011;4914;43.218;27.908;2022-07-06T05:27:16;29.70;;;13.48;;
9749;SDS011;4914;43.218;27.908;2022-07-06T05:29:43;28.40;;;13.35;;
9749;SDS011;4914;43.218;27.908;2022-07-06T05:32:10;26.85;;;13.30;;
9749;SDS011;4914;43.218;27.908;2022-07-06T05:34:37;26.38;;;14.70;;
9749;SDS011;4914;43.218;27.908;2022-07-06T05:37:06;26.00;;;13.98;;
9749;SDS011;4914;43.218;27.908;2022-07-06T05:39:33;27.00;;;13.70;;
9749;SDS011;4914;43.218;27.908;2022-07-06T05:42:00;24.38;;;13.10;;
9749;SDS011;4914;43.218;27.908;2022-07-06T05:44:27;27.67;;;13.60;;
9749;SDS011;4914;43.218;27.908;2022-07-06T05:46:54;20.88;;;12.75;;
9749;SDS011;4914;43.218;27.908;2022-07-06T05:49:41;26.83;;;13.52;;
9749;SDS011;4914;43.218;27.908;2022-07-06T05:52:27;26.25;;;14.98;;
9749;SDS011;4914;43.218;27.908;2022-07-06T05:54:54;28.92;;;15.98;;
9749;SDS011;4914;43.218;27.908;2022-07-06T05:57:21;28.38;;;17.98;;
9749;SDS011;4914;43.218;27.908;2022-07-06T05:59:48;33.42;;;19.42;;
9749;SDS011;4914;43.218;27.908;2022-07-06T06:02:15;43.75;;;19.63;;
9749;SDS011;4914;43.218;27.908;2022-07-06T06:04:41;40.80;;;22.38;;
9749;SDS011;4914;43.218;27.908;2022-07-06T06:07:08;41.63;;;23.00;;
9749;SDS011;4914;43.218;27.908;2022-07-06T06:09:37;33.67;;;21.45;;
9749;SDS011;4914;43.218;27.908;2022-07-06T06:12:03;36.67;;;20.00;;
9749;SDS011;4914;43.218;27.908;2022-07-06T06:14:31;27.05;;;18.58;;
9749;SDS011;4914;43.218;27.908;2022-07-06T06:16:58;24.95;;;17.83;;
9749;SDS011;4914;43.218;27.908;2022-07-06T06:19:25;33.88;;;18.63;;
9749;SDS011;4914;43.218;27.908;2022-07-06T06:21:51;26.40;;;17.63;;
9749;SDS011;4914;43.218;27.908;2022-07-06T06:24:18;31.55;;;17.02;;
9749;SDS011;4914;43.218;27.908;2022-07-06T06:26:47;25.80;;;17.10;;
9749;SDS011;4914;43.218;27.908;2022-07-06T06:29:13;23.42;;;16.33;;
9749;SDS011;4914;43.218;27.908;2022-07-06T06:31:40;22.90;;;15.57;;
9749;SDS011;4914;43.218;27.908;2022-07-06T06:34:08;32.40;;;14.98;;
9749;SDS011;4914;43.218;27.908;2022-07-06T06:36:35;29.35;;;15.10;;
9749;SDS011;4914;43.218;27.908;2022-07-06T06:39:02;24.73;;;15.05;;
9749;SDS011;4914;43.218;27.908;2022-07-06T06:41:29;31.52;;;16.17;;
9749;SDS011;4914;43.218;27.908;2022-07-06T06:43:57;22.92;;;14.57;;
9749;SDS011;4914;43.218;27.908;2022-07-06T06:46:24;21.88;;;13.70;;
9749;SDS011;4914;43.218;27.908;2022-07-06T06:48:51;21.17;;;13.88;;
9749;SDS011;4914;43.218;27.908;2022-07-06T06:51:18;23.98;;;13.30;;
9749;SDS011;4914;43.218;27.908;2022-07-06T06:53:45;23.17;;;13.85;;
9749;SDS011;4914;43.218;27.908;2022-07-06T06:56:12;24.67;;;14.60;;
9749;SDS011;4914;43.218;27.908;2022-07-06T06:58:39;24.98;;;14.15;;
9749;SDS011;4914;43.218;27.908;2022-07-06T07:01:08;23.35;;;14.13;;
9749;SDS011;4914;43.218;27.908;2022-07-06T07:03:35;26.92;;;13.57;;
9749;SDS011;4914;43.218;27.908;2022-07-06T07:06:01;21.38;;;13.63;;
9749;SDS011;4914;43.218;27.908;2022-07-06T07:08:28;29.70;;;14.18;;
9749;SDS011;4914;43.218;27.908;2022-07-06T07:10:55;28.48;;;14.77;;
9749;SDS011;4914;43.218;27.908;2022-07-06T07:13:22;26.67;;;13.55;;
9749;SDS011;4914;43.218;27.908;2022-07-06T07:15:49;28.02;;;14.10;;
9749;SDS011;4914;43.218;27.908;2022-07-06T07:18:17;18.67;;;14.20;;
9749;SDS011;4914;43.218;27.908;2022-07-06T07:20:44;20.75;;;13.93;;
9749;SDS011;4914;43.218;27.908;2022-07-06T07:23:11;25.17;;;14.15;;
9749;SDS011;4914;43.218;27.908;2022-07-06T07:25:38;28.85;;;14.40;;
9749;SDS011;4914;43.218;27.908;2022-07-06T07:28:05;23.90;;;13.23;;
9749;SDS011;4914;43.218;27.908;2022-07-06T07:30:31;29.77;;;13.55;;
9749;SDS011;4914;43.218;27.908;2022-07-06T07:32:58;22.30;;;12.70;;
9749;SDS011;4914;43.218;27.908;2022-07-06T07:35:27;24.38;;;12.82;;
9749;SDS011;4914;43.218;27.908;2022-07-06T07:37:54;19.67;;;11.65;;
9749;SDS011;4914;43.218;27.908;2022-07-06T07:40:21;25.20;;;11.82;;
9749;SDS011;4914;43.218;27.908;2022-07-06T07:42:48;14.30;;;9.85;;
9749;SDS011;4914;43.218;27.908;2022-07-06T07:45:15;18.63;;;10.05;;
9749;SDS011;4914;43.218;27.908;2022-07-06T07:47:42;15.82;;;9.27;;
9749;SDS011;4914;43.218;27.908;2022-07-06T07:50:10;11.85;;;8.60;;
9749;SDS011;4914;43.218;27.908;2022-07-06T07:52:39;9.98;;;8.23;;
9749;SDS011;4914;43.218;27.908;2022-07-06T07:55:07;17.50;;;8.55;;
9749;SDS011;4914;43.218;27.908;2022-07-06T07:57:34;12.20;;;8.82;;
9749;SDS011;4914;43.218;27.908;2022-07-06T08:00:01;12.77;;;7.90;;
9749;SDS011;4914;43.218;27.908;2022-07-06T08:02:29;11.05;;;8.18;;
9749;SDS011;4914;43.218;27.908;2022-07-06T08:04:57;12.45;;;7.72;;
9749;SDS011;4914;43.218;27.908;2022-07-06T08:07:24;10.88;;;7.88;;
9749;SDS011;4914;43.218;27.908;2022-07-06T08:09:52;13.43;;;7.68;;
9749;SDS011;4914;43.218;27.908;2022-07-06T08:12:19;14.60;;;7.95;;
9749;SDS011;4914;43.218;27.908;2022-07-06T08:14:46;13.38;;;7.22;;
9749;SDS011;4914;43.218;27.908;2022-07-06T08:17:13;8.55;;;7.32;;
9749;SDS011;4914;43.218;27.908;2022-07-06T08:19:40;11.57;;;8.02;;
9749;SDS011;4914;43.218;27.908;2022-07-06T08:22:07;11.43;;;7.93;;
9749;SDS011;4914;43.218;27.908;2022-07-06T08:24:34;11.90;;;7.65;;
9749;SDS011;4914;43.218;27.908;2022-07-06T08:27:03;16.77;;;7.40;;
9749;SDS011;4914;43.218;27.908;2022-07-06T08:29:30;11.45;;;7.10;;
9749;SDS011;4914;43.218;27.908;2022-07-06T08:31:57;8.90;;;6.20;;
9749;SDS011;4914;43.218;27.908;2022-07-06T08:34:24;7.78;;;6.47;;
9749;SDS011;4914;43.218;27.908;2022-07-06T08:36:51;8.23;;;6.97;;
9749;SDS011;4914;43.218;27.908;2022-07-06T08:39:18;10.35;;;6.90;;
9749;SDS011;4914;43.218;27.908;2022-07-06T08:41:45;9.98;;;6.57;;
9749;SDS011;4914;43.218;27.908;2022-07-06T08:44:15;9.68;;;6.45;;
9749;SDS011;4914;43.218;27.908;2022-07-06T08:46:42;11.50;;;6.80;;
9749;SDS011;4914;43.218;27.908;2022-07-06T08:49:12;8.05;;;5.75;;
9749;SDS011;4914;43.218;27.908;2022-07-06T08:51:40;7.28;;;5.80;;
9749;SDS011;4914;43.218;27.908;2022-07-06T08:54:07;12.98;;;6.30;;
9749;SDS011;4914;43.218;27.908;2022-07-06T08:56:35;8.30;;;6.05;;
9749;SDS011;4914;43.218;27.908;2022-07-06T08:59:02;10.88;;;6.40;;
9749;SDS011;4914;43.218;27.908;2022-07-06T09:01:31;9.75;;;5.95;;
9749;SDS011;4914;43.218;27.908;2022-07-06T09:03:58;11.43;;;6.30;;
9749;SDS011;4914;43.218;27.908;2022-07-06T09:06:29;12.45;;;6.10;;
9749;SDS011;4914;43.218;27.908;2022-07-06T09:08:56;8.57;;;6.43;;
9749;SDS011;4914;43.218;27.908;2022-07-06T09:11:24;9.30;;;5.90;;
9749;SDS011;4914;43.218;27.908;2022-07-06T09:13:51;8.05;;;6.25;;
9749;SDS011;4914;43.218;27.908;2022-07-06T09:16:26;7.22;;;5.82;;
9749;SDS011;4914;43.218;27.908;2022-07-06T09:18:55;7.32;;;6.30;;
9749;SDS011;4914;43.218;27.908;2022-07-06T09:21:23;8.35;;;5.80;;
9749;SDS011;4914;43.218;27.908;2022-07-06T09:23:55;7.22;;;6.00;;
9749;SDS011;4914;43.218;27.908;2022-07-06T09:26:23;9.23;;;6.05;;
9749;SDS011;4914;43.218;27.908;2022-07-06T09:28:50;7.75;;;5.78;;
9749;SDS011;4914;43.218;27.908;2022-07-06T09:31:17;18.90;;;6.38;;
9749;SDS011;4914;43.218;27.908;2022-07-06T09:33:55;8.13;;;7.00;;
9749;SDS011;4914;43.218;27.908;2022-07-06T09:36:41;9.32;;;6.70;;
9749;SDS011;4914;43.218;27.908;2022-07-06T09:39:16;9.80;;;6.35;;
9749;SDS011;4914;43.218;27.908;2022-07-06T09:41:48;8.98;;;6.35;;
9749;SDS011;4914;43.218;27.908;2022-07-06T09:44:20;7.65;;;6.15;;
9749;SDS011;4914;43.218;27.908;2022-07-06T09:46:49;11.32;;;7.60;;
9749;SDS011;4914;43.218;27.908;2022-07-06T09:49:18;8.70;;;5.50;;
9749;SDS011;4914;43.218;27.908;2022-07-06T09:51:46;11.55;;;5.43;;
9749;SDS011;4914;43.218;27.908;2022-07-06T09:54:13;8.93;;;5.78;;
9749;SDS011;4914;43.218;27.908;2022-07-06T09:56:42;8.55;;;5.90;;
9749;SDS011;4914;43.218;27.908;2022-07-06T09:59:12;8.13;;;5.57;;
9749;SDS011;4914;43.218;27.908;2022-07-06T10:01:41;7.95;;;5.90;;
9749;SDS011;4914;43.218;27.908;2022-07-06T10:04:10;7.55;;;5.75;;
9749;SDS011;4914;43.218;27.908;2022-07-06T10:06:39;5.93;;;5.32;;
9749;SDS011;4914;43.218;27.908;2022-07-06T10:09:07;13.32;;;6.00;;
9749;SDS011;4914;43.218;27.908;2022-07-06T10:11:37;7.05;;;5.82;;
9749;SDS011;4914;43.218;27.908;2022-07-06T10:14:05;10.40;;;6.05;;
9749;SDS011;4914;43.218;27.908;2022-07-06T10:16:33;10.18;;;5.78;;
9749;SDS011;4914;43.218;27.908;2022-07-06T10:19:06;6.20;;;5.70;;
9749;SDS011;4914;43.218;27.908;2022-07-06T10:21:35;11.20;;;6.30;;
9749;SDS011;4914;43.218;27.908;2022-07-06T10:24:05;5.72;;;5.20;;
9749;SDS011;4914;43.218;27.908;2022-07-06T10:26:33;10.77;;;5.18;;
9749;SDS011;4914;43.218;27.908;2022-07-06T10:29:01;7.88;;;5.60;;
9749;SDS011;4914;43.218;27.908;2022-07-06T10:31:28;12.60;;;6.22;;
9749;SDS011;4914;43.218;27.908;2022-07-06T10:33:57;10.27;;;5.60;;
9749;SDS011;4914;43.218;27.908;2022-07-06T10:36:25;9.02;;;5.70;;
9749;SDS011;4914;43.218;27.908;2022-07-06T10:38:53;11.30;;;6.10;;
9749;SDS011;4914;43.218;27.908;2022-07-06T10:41:31;6.25;;;5.68;;
9749;SDS011;4914;43.218;27.908;2022-07-06T10:43:58;6.93;;;5.57;;
9749;SDS011;4914;43.218;27.908;2022-07-06T10:46:41;7.85;;;6.15;;
9749;SDS011;4914;43.218;27.908;2022-07-06T10:49:17;8.10;;;5.60;;
9749;SDS011;4914;43.218;27.908;2022-07-06T10:51:44;8.43;;;6.40;;
9749;SDS011;4914;43.218;27.908;2022-07-06T10:54:11;9.43;;;6.53;;
9749;SDS011;4914;43.218;27.908;2022-07-06T10:56:39;8.55;;;5.55;;
9749;SDS011;4914;43.218;27.908;2022-07-06T10:59:10;6.95;;;5.22;;
9749;SDS011;4914;43.218;27.908;2022-07-06T11:01:37;10.18;;;5.68;;
9749;SDS011;4914;43.218;27.908;2022-07-06T11:04:05;7.15;;;5.40;;
9749;SDS011;4914;43.218;27.908;2022-07-06T11:06:33;8.18;;;6.25;;
9749;SDS011;4914;43.218;27.908;2022-07-06T11:09:01;7.88;;;5.93;;
9749;SDS011;4914;43.218;27.908;2022-07-06T11:11:39;6.70;;;6.05;;
9749;SDS011;4914;43.218;27.908;2022-07-06T11:14:11;8.65;;;5.60;;
9749;SDS011;4914;43.218;27.908;2022-07-06T11:16:40;14.35;;;5.90;;
9749;SDS011;4914;43.218;27.908;2022-07-06T11:19:27;7.82;;;5.30;;
9749;SDS011;4914;43.218;27.908;2022-07-06T11:21:55;12.50;;;5.40;;
9749;SDS011;4914;43.218;27.908;2022-07-06T11:24:25;17.25;;;5.50;;
9749;SDS011;4914;43.218;27.908;2022-07-06T11:26:56;11.60;;;5.45;;
9749;SDS011;4914;43.218;27.908;2022-07-06T11:29:24;11.18;;;5.57;;
9749;SDS011;4914;43.218;27.908;2022-07-06T11:31:53;8.75;;;5.47;;
9749;SDS011;4914;43.218;27.908;2022-07-06T11:34:21;11.10;;;6.40;;
9749;SDS011;4914;43.218;27.908;2022-07-06T11:36:49;6.40;;;5.80;;
9749;SDS011;4914;43.218;27.908;2022-07-06T11:39:21;6.18;;;5.47;;
9749;SDS011;4914;43.218;27.908;2022-07-06T11:41:48;7.85;;;5.60;;
9749;SDS011;4914;43.218;27.908;2022-07-06T11:44:16;9.43;;;5.55;;
9749;SDS011;4914;43.218;27.908;2022-07-06T11:46:43;7.00;;;5.95;;
9749;SDS011;4914;43.218;27.908;2022-07-06T11:49:10;13.68;;;5.90;;
9749;SDS011;4914;43.218;27.908;2022-07-06T11:51:37;6.50;;;5.90;;
9749;SDS011;4914;43.218;27.908;2022-07-06T11:54:07;10.00;;;6.10;;
9749;SDS011;4914;43.218;27.908;2022-07-06T11:56:36;7.22;;;5.90;;
9749;SDS011;4914;43.218;27.908;2022-07-06T11:59:04;8.13;;;6.60;;
9749;SDS011;4914;43.218;27.908;2022-07-06T12:01:32;10.52;;;5.97;;
9749;SDS011;4914;43.218;27.908;2022-07-06T12:04:01;9.18;;;6.60;;
9749;SDS011;4914;43.218;27.908;2022-07-06T12:06:29;9.73;;;6.00;;
9749;SDS011;4914;43.218;27.908;2022-07-06T12:08:57;7.75;;;6.00;;
9749;SDS011;4914;43.218;27.908;2022-07-06T12:11:26;9.48;;;6.70;;
9749;SDS011;4914;43.218;27.908;2022-07-06T12:13:54;10.30;;;6.13;;
9749;SDS011;4914;43.218;27.908;2022-07-06T12:16:28;11.43;;;6.00;;
9749;SDS011;4914;43.218;27.908;2022-07-06T12:18:57;7.20;;;6.28;;
9749;SDS011;4914;43.218;27.908;2022-07-06T12:21:24;8.20;;;6.45;;
9749;SDS011;4914;43.218;27.908;2022-07-06T12:23:52;13.57;;;6.43;;
9749;SDS011;4914;43.218;27.908;2022-07-06T12:26:21;8.15;;;6.18;;
9749;SDS011;4914;43.218;27.908;2022-07-06T12:29:00;12.55;;;7.32;;
9749;SDS011;4914;43.218;27.908;2022-07-06T12:31:32;13.30;;;6.75;;
9749;SDS011;4914;43.218;27.908;2022-07-06T12:34:02;9.15;;;6.30;;
9749;SDS011;4914;43.218;27.908;2022-07-06T12:36:30;13.93;;;6.10;;
9749;SDS011;4914;43.218;27.908;2022-07-06T12:38:57;7.80;;;5.95;;
9749;SDS011;4914;43.218;27.908;2022-07-06T12:41:28;13.93;;;6.72;;
9749;SDS011;4914;43.218;27.908;2022-07-06T12:44:03;9.93;;;6.40;;
9749;SDS011;4914;43.218;27.908;2022-07-06T12:46:34;8.73;;;6.00;;
9749;SDS011;4914;43.218;27.908;2022-07-06T12:49:10;11.13;;;5.80;;
9749;SDS011;4914;43.218;27.908;2022-07-06T12:51:48;7.78;;;6.03;;
9749;SDS011;4914;43.218;27.908;2022-07-06T12:54:22;10.43;;;5.90;;
9749;SDS011;4914;43.218;27.908;2022-07-06T12:56:57;10.45;;;5.93;;
9749;SDS011;4914;43.218;27.908;2022-07-06T12:59:24;11.30;;;5.78;;
9749;SDS011;4914;43.218;27.908;2022-07-06T13:01:51;6.10;;;5.60;;
9749;SDS011;4914;43.218;27.908;2022-07-06T13:04:22;7.30;;;5.75;;
9749;SDS011;4914;43.218;27.908;2022-07-06T13:06:49;11.77;;;5.70;;
9749;SDS011;4914;43.218;27.908;2022-07-06T13:09:16;6.82;;;5.75;;
9749;SDS011;4914;43.218;27.908;2022-07-06T13:11:44;6.32;;;5.53;;
9749;SDS011;4914;43.218;27.908;2022-07-06T13:14:11;16.73;;;6.03;;
9749;SDS011;4914;43.218;27.908;2022-07-06T13:16:38;9.38;;;5.82;;
9749;SDS011;4914;43.218;27.908;2022-07-06T13:19:05;6.43;;;5.55;;
9749;SDS011;4914;43.218;27.908;2022-07-06T13:21:33;7.35;;;5.50;;
9749;SDS011;4914;43.218;27.908;2022-07-06T13:24:00;11.93;;;5.50;;
9749;SDS011;4914;43.218;27.908;2022-07-06T13:26:27;12.15;;;5.63;;
9749;SDS011;4914;43.218;27.908;2022-07-06T13:28:54;8.02;;;6.00;;
9749;SDS011;4914;43.218;27.908;2022-07-06T13:31:22;10.23;;;5.78;;
9749;SDS011;4914;43.218;27.908;2022-07-06T13:33:49;11.15;;;5.97;;
9749;SDS011;4914;43.218;27.908;2022-07-06T13:36:15;8.75;;;6.03;;
9749;SDS011;4914;43.218;27.908;2022-07-06T13:38:44;7.40;;;5.95;;
9749;SDS011;4914;43.218;27.908;2022-07-06T13:41:11;6.88;;;5.90;;
9749;SDS011;4914;43.218;27.908;2022-07-06T13:43:37;15.23;;;6.13;;
9749;SDS011;4914;43.218;27.908;2022-07-06T13:46:05;8.80;;;5.68;;
9749;SDS011;4914;43.218;27.908;2022-07-06T13:48:33;11.93;;;5.85;;
9749;SDS011;4914;43.218;27.908;2022-07-06T13:51:01;7.35;;;5.63;;
9749;SDS011;4914;43.218;27.908;2022-07-06T13:53:28;7.88;;;5.95;;
9749;SDS011;4914;43.218;27.908;2022-07-06T13:55:57;6.65;;;5.93;;
9749;SDS011;4914;43.218;27.908;2022-07-06T13:58:26;9.30;;;5.80;;
9749;SDS011;4914;43.218;27.908;2022-07-06T14:00:53;25.25;;;7.03;;
9749;SDS011;4914;43.218;27.908;2022-07-06T14:03:20;9.63;;;6.00;;
9749;SDS011;4914;43.218;27.908;2022-07-06T14:05:53;8.25;;;5.57;;
9749;SDS011;4914;43.218;27.908;2022-07-06T14:08:21;7.93;;;5.60;;
9749;SDS011;4914;43.218;27.908;2022-07-06T14:10:47;10.45;;;6.22;;
9749;SDS011;4914;43.218;27.908;2022-07-06T14:13:16;8.80;;;6.35;;
9749;SDS011;4914;43.218;27.908;2022-07-06T14:15:42;7.18;;;6.15;;
9749;SDS011;4914;43.218;27.908;2022-07-06T14:18:09;11.10;;;6.18;;
9749;SDS011;4914;43.218;27.908;2022-07-06T14:20:36;8.55;;;7.35;;
9749;SDS011;4914;43.218;27.908;2022-07-06T14:23:03;10.73;;;6.55;;
9749;SDS011;4914;43.218;27.908;2022-07-06T14:25:30;10.23;;;7.38;;
9749;SDS011;4914;43.218;27.908;2022-07-06T14:27:57;7.05;;;5.43;;
9749;SDS011;4914;43.218;27.908;2022-07-06T14:30:25;6.88;;;5.78;;
9749;SDS011;4914;43.218;27.908;2022-07-06T14:32:52;9.57;;;5.20;;
9749;SDS011;4914;43.218;27.908;2022-07-06T14:35:19;7.18;;;5.70;;
9749;SDS011;4914;43.218;27.908;2022-07-06T14:37:47;9.18;;;6.00;;
9749;SDS011;4914;43.218;27.908;2022-07-06T14:40:14;13.15;;;5.50;;
9749;SDS011;4914;43.218;27.908;2022-07-06T14:42:41;7.45;;;5.20;;
9749;SDS011;4914;43.218;27.908;2022-07-06T14:45:08;13.38;;;5.70;;
9749;SDS011;4914;43.218;27.908;2022-07-06T14:47:36;9.20;;;5.70;;
9749;SDS011;4914;43.218;27.908;2022-07-06T14:50:04;12.45;;;5.75;;
9749;SDS011;4914;43.218;27.908;2022-07-06T14:52:31;7.07;;;5.72;;